Time;durP1;ratioP1;P1;durP2;ratioP2;P2;SDS_P1;SDS_P2;PMS_P1;PMS_P2;Temp;Humidity;BMP_temperature;BMP_pressure;BME280_temperature;BME280_humidity;BME280_pressure;Samples;Min_cycle;Max_cycle;Signal;HPM_P1;HPM_P2
2023/08/10 00:00:17;;;;;;;1.55;1.10;;;16.50;96.60;;;;;;4937111;28;20026;-84
2023/08/10 00:02:44;;;;;;;1.13;0.90;;;16.50;96.50;;;;;;4928675;28;20515;-86
2023/08/10 00:05:10;;;;;;;1.47;1.00;;;16.50;96.60;;;;;;4947537;28;20050;-85
2023/08/10 00:07:36;;;;;;;1.60;1.00;;;16.40;96.60;;;;;;4952645;28;20295;-86
2023/08/10 00:10:08;;;;;;;1.73;1.17;;;16.40;96.70;;;;;;4949021;28;20170;-85
2023/08/10 00:12:35;;;;;;;1.40;1.00;;;16.40;96.60;;;;;;4928130;28;20053;-86
2023/08/10 00:15:01;;;;;;;1.83;1.05;;;16.40;96.70;;;;;;4930138;28;20564;-85
2023/08/10 00:17:26;;;;;;;1.20;0.90;;;16.30;96.70;;;;;;4955719;28;20054;-86
2023/08/10 00:19:52;;;;;;;1.50;1.10;;;16.30;96.80;;;;;;4940994;28;20089;-86
2023/08/10 00:22:18;;;;;;;1.23;1.00;;;16.20;96.80;;;;;;4939834;28;20030;-87
2023/08/10 00:24:43;;;;;;;1.30;0.90;;;16.20;96.80;;;;;;4944024;28;20866;-86
2023/08/10 00:27:09;;;;;;;1.63;1.00;;;16.20;96.80;;;;;;4949268;28;20039;-85
2023/08/10 00:29:35;;;;;;;1.30;1.00;;;16.20;96.90;;;;;;4950009;28;20125;-86
2023/08/10 00:32:01;;;;;;;1.30;1.00;;;16.10;96.90;;;;;;4965199;28;20030;-85
2023/08/10 00:34:27;;;;;;;1.47;0.83;;;16.10;96.90;;;;;;4949350;28;23397;-86
2023/08/10 00:36:52;;;;;;;1.98;1.05;;;16.10;97.00;;;;;;4960881;28;20253;-86
2023/08/10 00:39:18;;;;;;;1.00;0.90;;;16.00;97.00;;;;;;4941380;28;20525;-86
2023/08/10 00:41:44;;;;;;;1.10;1.00;;;16.00;97.10;;;;;;4938763;28;20310;-86
2023/08/10 00:44:10;;;;;;;1.60;1.27;;;;;;;;;;4966074;28;20033;-85
2023/08/10 00:46:36;;;;;;;1.50;0.75;;;14.70;97.90;;;;;;4946202;28;20118;-85
2023/08/10 00:49:03;;;;;;;1.10;0.80;;;16.00;97.20;;;;;;4977352;28;20654;-87
2023/08/10 00:51:29;;;;;;;1.33;0.70;;;;;;;;;;4950987;28;20039;-85
2023/08/10 00:53:55;;;;;;;1.10;0.90;;;15.90;96.90;;;;;;4947013;28;20340;-85
2023/08/10 00:56:21;;;;;;;2.37;0.90;;;15.90;97.20;;;;;;4924044;28;20599;-85
2023/08/10 00:58:48;;;;;;;1.77;0.95;;;15.90;97.30;;;;;;4935066;28;20371;-87
2023/08/10 01:01:14;;;;;;;1.55;1.00;;;15.80;97.30;;;;;;4966600;28;20496;-87
2023/08/10 01:03:40;;;;;;;1.47;1.00;;;15.70;98.40;;;;;;4935227;28;20252;-81
2023/08/10 01:06:15;;;;;;;1.30;0.90;;;15.80;97.30;;;;;;4946848;28;20050;-81
2023/08/10 01:09:04;;;;;;;1.10;1.00;;;15.80;97.20;;;;;;4971264;28;20626;-80
2023/08/10 01:11:42;;;;;;;1.48;0.90;;;15.70;97.20;;;;;;4934873;28;20237;-82
2023/08/10 01:14:16;;;;;;;2.43;1.00;;;15.70;97.20;;;;;;4954848;28;20038;-83
2023/08/10 01:16:43;;;;;;;1.13;0.98;;;15.70;97.50;;;;;;4949138;28;20163;-82
2023/08/10 01:19:36;;;;;;;0.88;0.77;;;15.60;97.50;;;;;;4959125;28;20890;-84
2023/08/10 01:22:13;;;;;;;0.80;0.80;;;15.60;97.40;;;;;;4956264;28;20512;-81
2023/08/10 01:24:43;;;;;;;3.58;1.98;;;15.60;97.60;;;;;;4957455;28;20272;-81
2023/08/10 01:27:13;;;;;;;0.87;0.73;;;15.60;97.60;;;;;;4941655;28;20029;-84
2023/08/10 01:29:40;;;;;;;1.15;1.00;;;15.50;97.60;;;;;;4944404;28;20161;-81
2023/08/10 01:32:13;;;;;;;1.40;1.10;;;15.50;97.80;;;;;;4959645;28;20035;-83
2023/08/10 01:34:39;;;;;;;1.35;1.13;;;15.50;97.70;;;;;;4963858;28;20058;-82
2023/08/10 01:37:05;;;;;;;1.40;1.10;;;15.50;97.80;;;;;;4953068;28;20105;-84
2023/08/10 01:39:32;;;;;;;1.05;0.95;;;15.50;97.80;;;;;;4953499;28;20133;-81
2023/08/10 01:41:58;;;;;;;1.17;1.02;;;15.50;97.90;;;;;;4946810;28;20092;-81
2023/08/10 01:44:24;;;;;;;0.93;0.70;;;15.50;97.80;;;;;;4953056;28;20031;-83
2023/08/10 01:46:52;;;;;;;1.00;0.90;;;15.40;97.90;;;;;;4943275;28;20072;-80
2023/08/10 01:49:22;;;;;;;1.02;0.82;;;15.40;97.90;;;;;;4922196;28;20092;-84
2023/08/10 01:51:49;;;;;;;1.08;0.90;;;15.40;97.90;;;;;;4964192;28;20058;-82
2023/08/10 01:54:16;;;;;;;2.55;0.90;;;15.40;97.90;;;;;;4942248;28;20453;-82
2023/08/10 01:56:43;;;;;;;1.00;0.87;;;15.40;97.90;;;;;;4923440;28;20057;-83
2023/08/10 01:59:09;;;;;;;1.42;0.80;;;15.30;97.90;;;;;;4936078;28;20574;-81
2023/08/10 02:01:35;;;;;;;1.02;0.88;;;15.30;97.90;;;;;;4942771;28;20467;-83
2023/08/10 02:04:00;;;;;;;1.08;0.90;;;15.30;97.90;;;;;;4953521;28;20045;-80
2023/08/10 02:06:26;;;;;;;0.93;0.83;;;15.20;97.90;;;;;;4943643;28;20056;-83
2023/08/10 02:08:52;;;;;;;2.58;1.10;;;15.30;98.00;;;;;;4953946;28;20606;-80
2023/08/10 02:11:18;;;;;;;1.13;0.83;;;15.20;98.00;;;;;;4964322;28;20064;-82
2023/08/10 02:13:43;;;;;;;1.42;0.90;;;15.20;98.00;;;;;;4934277;28;20378;-84
2023/08/10 02:16:09;;;;;;;1.77;0.90;;;15.20;98.10;;;;;;4962229;28;20034;-83
2023/08/10 02:18:35;;;;;;;1.77;0.98;;;16.00;99.60;;;;;;4974302;28;20102;-83
2023/08/10 02:21:00;;;;;;;0.80;0.80;;;15.10;98.10;;;;;;4949601;28;20030;-80
2023/08/10 02:23:29;;;;;;;1.02;0.80;;;15.10;98.10;;;;;;4972973;28;20034;-83
2023/08/10 02:25:55;;;;;;;2.10;1.02;;;15.10;98.10;;;;;;4949315;28;20250;-81
2023/08/10 02:28:20;;;;;;;1.47;0.80;;;15.10;98.20;;;;;;4946527;28;20034;-83
2023/08/10 02:30:46;;;;;;;1.85;0.90;;;15.10;98.30;;;;;;4954024;28;20046;-82
2023/08/10 02:33:12;;;;;;;1.73;0.83;;;15.00;98.20;;;;;;4980398;28;20031;-81
2023/08/10 02:35:38;;;;;;;1.45;0.90;;;15.00;98.30;;;;;;4935573;28;20120;-83
2023/08/10 02:38:03;;;;;;;1.10;0.97;;;15.00;98.30;;;;;;4965074;28;21045;-80
2023/08/10 02:40:29;;;;;;;1.40;1.00;;;15.00;98.30;;;;;;4966953;28;20305;-83
2023/08/10 02:42:55;;;;;;;1.00;0.90;;;15.00;98.40;;;;;;4946460;28;20137;-81
2023/08/10 02:45:20;;;;;;;1.13;0.90;;;15.00;98.40;;;;;;4922846;28;20021;-81
2023/08/10 02:47:46;;;;;;;1.00;0.90;;;14.90;98.40;;;;;;4974864;28;20543;-81
2023/08/10 02:50:12;;;;;;;1.50;0.90;;;14.90;98.40;;;;;;4979577;28;20085;-81
2023/08/10 02:52:37;;;;;;;1.00;0.90;;;14.90;98.40;;;;;;4967047;28;20034;-84
2023/08/10 02:55:03;;;;;;;1.20;0.90;;;14.80;98.40;;;;;;4959684;28;20096;-80
2023/08/10 02:57:30;;;;;;;1.13;0.90;;;14.90;98.40;;;;;;4963268;28;20030;-83
2023/08/10 02:59:56;;;;;;;1.77;0.90;;;13.80;99.50;;;;;;4923174;28;20560;-81
2023/08/10 03:02:22;;;;;;;1.25;1.10;;;;;;;;;;4952272;28;20035;-81
2023/08/10 03:04:47;;;;;;;2.80;0.90;;;14.80;98.20;;;;;;4941122;28;20144;-80
2023/08/10 03:07:13;;;;;;;1.73;0.87;;;14.80;98.50;;;;;;4953228;28;20444;-81
2023/08/10 03:09:41;;;;;;;2.72;1.60;;;14.70;98.60;;;;;;4946628;28;20077;-83
2023/08/10 03:12:08;;;;;;;1.38;1.08;;;14.70;98.60;;;;;;4937478;28;20336;-82
2023/08/10 03:14:34;;;;;;;1.67;0.80;;;14.70;98.70;;;;;;4955859;28;20026;-83
2023/08/10 03:17:00;;;;;;;1.10;0.90;;;14.70;98.80;;;;;;4933903;28;20077;-84
2023/08/10 03:19:25;;;;;;;1.70;1.10;;;14.70;98.80;;;;;;4949262;28;20294;-80
2023/08/10 03:21:51;;;;;;;6.20;1.33;;;14.70;98.80;;;;;;4960109;28;20035;-83
2023/08/10 03:24:17;;;;;;;1.20;0.98;;;14.60;98.80;;;;;;4932894;28;20236;-80
2023/08/10 03:26:43;;;;;;;1.10;1.00;;;14.80;99.90;;;;;;4936145;28;20062;-81
2023/08/10 03:29:08;;;;;;;1.50;0.88;;;14.60;98.80;;;;;;4958228;28;20717;-81
2023/08/10 03:31:34;;;;;;;0.93;0.80;;;14.60;98.90;;;;;;4931155;28;20060;-81
2023/08/10 03:34:00;;;;;;;1.10;0.90;;;14.60;98.90;;;;;;4937210;28;20666;-84
2023/08/10 03:36:26;;;;;;;1.25;0.90;;;;;;;;;;4939285;28;20041;-81
2023/08/10 03:38:52;;;;;;;1.93;0.90;;;14.60;98.60;;;;;;4953800;28;20037;-83
2023/08/10 03:41:18;;;;;;;1.70;0.80;;;;;;;;;;4966543;28;20026;-80
2023/08/10 03:43:43;;;;;;;1.50;1.00;;;14.50;98.70;;;;;;4948806;28;20027;-80
2023/08/10 03:46:09;;;;;;;1.20;0.90;;;14.10;99.90;;;;;;4941716;28;20033;-83
2023/08/10 03:48:35;;;;;;;3.25;1.20;;;14.50;99.00;;;;;;4952720;28;20037;-80
2023/08/10 03:51:01;;;;;;;3.20;1.10;;;14.40;99.00;;;;;;4959903;28;20033;-83
2023/08/10 03:53:27;;;;;;;1.10;1.00;;;14.50;99.10;;;;;;4961706;28;20050;-81
2023/08/10 03:55:52;;;;;;;2.15;1.00;;;14.40;99.10;;;;;;4955573;28;20022;-83
2023/08/10 03:58:18;;;;;;;1.63;1.10;;;14.40;99.20;;;;;;4942023;28;20030;-80
2023/08/10 04:00:47;;;;;;;1.77;1.10;;;14.40;99.20;;;;;;4951044;28;20047;-80
2023/08/10 04:03:13;;;;;;;2.90;1.30;;;14.40;99.20;;;;;;4930292;28;20053;-81
2023/08/10 04:05:39;;;;;;;1.00;0.80;;;14.40;99.20;;;;;;4955607;28;20054;-81
2023/08/10 04:08:09;;;;;;;0.98;0.88;;;14.40;99.20;;;;;;4937342;28;20117;-83
2023/08/10 04:10:35;;;;;;;1.25;0.95;;;14.30;99.30;;;;;;4953860;28;20026;-82
2023/08/10 04:13:01;;;;;;;1.27;0.90;;;14.30;99.30;;;;;;4959550;28;20026;-83
2023/08/10 04:15:28;;;;;;;1.13;0.93;;;13.90;99.90;;;;;;4948617;28;20543;-80
2023/08/10 04:17:53;;;;;;;1.15;1.05;;;14.30;99.40;;;;;;4924312;28;20026;-83
2023/08/10 04:20:19;;;;;;;1.83;0.90;;;11.60;99.90;;;;;;4950783;28;20311;-81
2023/08/10 04:22:45;;;;;;;1.10;1.00;;;14.30;99.40;;;;;;4943666;28;20022;-81
2023/08/10 04:25:11;;;;;;;1.00;0.80;;;14.30;99.50;;;;;;4955636;28;20077;-81
2023/08/10 04:27:37;;;;;;;1.40;1.00;;;;;;;;;;4956746;28;20033;-80
2023/08/10 04:30:04;;;;;;;1.40;0.90;;;14.30;99.30;;;;;;4959980;28;20030;-82
2023/08/10 04:32:30;;;;;;;1.60;1.00;;;14.30;99.60;;;;;;4960674;28;20035;-80
2023/08/10 04:34:55;;;;;;;1.30;0.88;;;14.30;99.60;;;;;;4953724;28;20026;-83
2023/08/10 04:37:22;;;;;;;1.07;0.90;;;13.70;99.90;;;;;;4954362;28;20235;-80
2023/08/10 04:39:48;;;;;;;1.15;0.90;;;14.30;99.70;;;;;;4960904;28;20098;-83
2023/08/10 04:42:14;;;;;;;1.20;0.88;;;14.30;99.70;;;;;;4953666;28;20352;-80
2023/08/10 04:44:40;;;;;;;0.90;0.80;;;14.30;99.80;;;;;;4967755;28;20052;-80
2023/08/10 04:47:06;;;;;;;1.38;1.08;;;14.30;99.80;;;;;;4981681;28;20036;-82
2023/08/10 04:49:31;;;;;;;1.17;1.00;;;14.30;99.80;;;;;;4931857;28;20029;-81
2023/08/10 04:51:57;;;;;;;2.50;1.00;;;;;;;;;;4938682;28;20108;-83
2023/08/10 04:54:23;;;;;;;1.50;0.90;;;14.30;99.70;;;;;;4951981;28;20036;-80
2023/08/10 04:56:49;;;;;;;2.80;1.10;;;14.30;99.90;;;;;;4967079;28;20053;-83
2023/08/10 04:59:15;;;;;;;1.20;1.00;;;14.30;99.90;;;;;;4956019;28;20033;-81
2023/08/10 05:01:41;;;;;;;1.30;0.98;;;14.30;99.90;;;;;;4965168;28;20109;-81
2023/08/10 05:04:07;;;;;;;1.10;1.00;;;;;;;;;;4929989;28;20448;-80
2023/08/10 05:06:36;;;;;;;1.13;1.03;;;14.30;99.90;;;;;;4925616;28;20377;-83
2023/08/10 05:09:04;;;;;;;1.40;0.93;;;14.30;99.90;;;;;;4930312;28;20908;-80
2023/08/10 05:11:30;;;;;;;1.30;1.00;;;14.30;99.90;;;;;;4945137;28;20027;-82
2023/08/10 05:13:55;;;;;;;1.45;1.00;;;14.30;99.90;;;;;;4935286;28;20520;-81
2023/08/10 05:16:21;;;;;;;1.83;0.93;;;14.30;99.90;;;;;;4952687;28;20034;-84
2023/08/10 05:18:47;;;;;;;2.70;1.25;;;13.30;99.90;;;;;;4943482;28;20488;-80
2023/08/10 05:21:14;;;;;;;1.63;1.10;;;14.20;99.90;;;;;;4935711;28;20036;-81
2023/08/10 05:23:40;;;;;;;1.73;1.10;;;14.20;99.90;;;;;;4930931;28;20056;-84
2023/08/10 05:26:08;;;;;;;1.10;0.90;;;15.40;99.90;;;;;;4962435;28;20496;-80
2023/08/10 05:28:34;;;;;;;1.08;0.95;;;14.30;99.90;;;;;;4954746;28;20022;-83
2023/08/10 05:31:00;;;;;;;1.20;1.00;;;14.30;99.90;;;;;;4984049;28;20036;-80
2023/08/10 05:33:26;;;;;;;1.30;1.10;;;;;;;;;;4959065;28;20034;-83
2023/08/10 05:35:52;;;;;;;1.23;1.10;;;13.80;99.90;;;;;;4939362;28;21112;-80
2023/08/10 05:38:17;;;;;;;1.20;1.00;;;15.90;99.90;;;;;;4955456;28;20030;-80
2023/08/10 05:40:43;;;;;;;1.80;1.38;;;13.80;99.90;;;;;;4971942;28;21141;-81
2023/08/10 05:43:09;;;;;;;1.67;1.07;;;15.70;99.90;;;;;;4967294;28;20669;-82
2023/08/10 05:45:35;;;;;;;1.58;1.30;;;14.50;99.90;;;;;;4936979;28;20405;-83
2023/08/10 05:48:00;;;;;;;2.23;1.13;;;14.60;99.90;;;;;;4981947;28;20114;-83
2023/08/10 05:50:27;;;;;;;2.73;1.20;;;14.60;99.90;;;;;;4951815;28;20707;-83
2023/08/10 05:52:53;;;;;;;1.40;1.10;;;14.60;99.90;;;;;;4936394;28;20710;-82
2023/08/10 05:55:19;;;;;;;2.47;1.20;;;13.90;99.90;;;;;;4947361;28;20427;-80
2023/08/10 05:57:45;;;;;;;1.30;1.05;;;14.70;99.90;;;;;;4957860;28;20176;-82
2023/08/10 06:00:14;;;;;;;1.85;1.20;;;14.80;99.90;;;;;;4963580;28;20026;-83
2023/08/10 06:02:41;;;;;;;1.63;1.00;;;16.50;99.90;;;;;;4955768;28;20085;-81
2023/08/10 06:05:07;;;;;;;1.88;1.13;;;14.90;99.90;;;;;;4974195;28;20943;-82
2023/08/10 06:07:34;;;;;;;1.37;1.00;;;15.00;99.90;;;;;;4958579;28;20030;-83
2023/08/10 06:10:00;;;;;;;2.08;1.48;;;14.90;99.90;;;;;;4944254;28;20031;-83
2023/08/10 06:12:25;;;;;;;1.55;1.10;;;14.80;99.90;;;;;;4959527;28;20113;-84
2023/08/10 06:14:51;;;;;;;1.10;1.00;;;15.10;99.90;;;;;;4984466;28;20121;-82
2023/08/10 06:17:17;;;;;;;7.83;1.30;;;15.20;99.90;;;;;;4930821;28;20026;-81
2023/08/10 06:19:53;;;;;;;1.30;1.10;;;15.30;99.90;;;;;;4968192;28;20667;-82
2023/08/10 06:22:20;;;;;;;1.50;0.98;;;15.30;99.90;;;;;;4956370;28;20049;-84
2023/08/10 06:24:46;;;;;;;2.07;1.33;;;;;;;;;;4933219;28;20458;-82
2023/08/10 06:27:12;;;;;;;1.55;1.00;;;15.50;99.90;;;;;;4942313;28;20404;-82
2023/08/10 06:29:38;;;;;;;3.45;1.52;;;15.60;99.90;;;;;;4967778;28;20225;-83
2023/08/10 06:32:09;;;;;;;1.73;1.20;;;15.70;99.90;;;;;;4960181;28;20025;-82
2023/08/10 06:34:35;;;;;;;1.30;1.02;;;15.80;99.90;;;;;;4953728;28;20244;-81
2023/08/10 06:37:01;;;;;;;1.35;0.98;;;15.90;99.90;;;;;;4967031;28;20030;-82
2023/08/10 06:39:29;;;;;;;1.17;1.00;;;15.90;99.90;;;;;;4939930;28;20034;-84
2023/08/10 06:41:55;;;;;;;1.33;0.90;;;15.90;99.90;;;;;;4955752;28;20034;-82
2023/08/10 06:44:21;;;;;;;1.58;1.00;;;16.10;99.90;;;;;;4953949;28;20033;-85
2023/08/10 06:46:47;;;;;;;1.30;1.00;;;16.20;99.90;;;;;;4957312;28;20327;-82
2023/08/10 06:49:12;;;;;;;2.20;1.20;;;17.10;99.90;;;;;;4945545;28;20774;-82
2023/08/10 06:51:38;;;;;;;1.30;1.00;;;16.30;99.90;;;;;;4954158;28;20267;-81
2023/08/10 06:54:04;;;;;;;1.50;0.90;;;16.50;99.90;;;;;;4945747;28;20034;-82
2023/08/10 06:56:30;;;;;;;1.92;1.00;;;16.50;99.90;;;;;;4923582;28;20169;-84
2023/08/10 06:58:56;;;;;;;2.07;1.00;;;16.60;99.90;;;;;;4955493;28;20022;-84
2023/08/10 07:01:21;;;;;;;1.20;0.90;;;16.70;99.90;;;;;;4961445;28;20781;-85
2023/08/10 07:03:47;;;;;;;1.53;1.00;;;16.80;99.90;;;;;;4941325;28;20567;-81
2023/08/10 07:06:13;;;;;;;1.47;0.93;;;16.90;99.90;;;;;;4934575;28;20294;-81
2023/08/10 07:08:39;;;;;;;1.30;1.00;;;17.00;99.90;;;;;;4950868;28;20053;-83
2023/08/10 07:11:05;;;;;;;1.40;0.90;;;17.10;99.90;;;;;;4930146;28;20026;-82
2023/08/10 07:13:31;;;;;;;1.27;0.98;;;17.90;99.90;;;;;;4951820;28;20093;-84
2023/08/10 07:15:57;;;;;;;1.08;0.90;;;17.30;99.90;;;;;;4964456;28;20029;-82
2023/08/10 07:18:23;;;;;;;2.13;0.97;;;17.40;99.90;;;;;;4944356;28;20026;-84
2023/08/10 07:20:49;;;;;;;0.90;0.73;;;17.50;99.90;;;;;;4958832;28;20731;-82
2023/08/10 07:23:17;;;;;;;1.27;0.90;;;17.70;99.90;;;;;;4966416;28;20492;-82
2023/08/10 07:25:45;;;;;;;0.98;0.80;;;17.70;99.90;;;;;;4925192;28;20326;-82
2023/08/10 07:28:11;;;;;;;1.40;1.00;;;17.80;99.90;;;;;;4956091;28;20050;-81
2023/08/10 07:30:37;;;;;;;2.08;0.90;;;18.00;99.90;;;;;;4939171;28;20323;-82
2023/08/10 07:33:03;;;;;;;2.60;1.00;;;18.10;99.90;;;;;;4983357;28;20019;-82
2023/08/10 07:35:29;;;;;;;1.52;0.80;;;18.10;99.90;;;;;;4954189;28;20027;-84
2023/08/10 07:37:55;;;;;;;1.33;0.90;;;18.30;99.90;;;;;;4959203;28;20023;-82
2023/08/10 07:40:21;;;;;;;2.67;1.13;;;18.40;99.90;;;;;;4957659;28;20116;-85
2023/08/10 07:42:46;;;;;;;2.50;1.08;;;18.50;99.90;;;;;;4949808;28;20231;-84
2023/08/10 07:45:12;;;;;;;1.13;0.90;;;18.60;99.90;;;;;;4936948;28;20122;-82
2023/08/10 07:47:38;;;;;;;1.83;1.17;;;18.50;99.90;;;;;;4967582;28;20359;-84
2023/08/10 07:50:05;;;;;;;1.17;0.88;;;18.80;99.90;;;;;;4944725;28;21036;-82
2023/08/10 07:52:31;;;;;;;1.30;0.70;;;18.90;99.90;;;;;;4947382;28;21674;-83
2023/08/10 07:54:57;;;;;;;1.13;0.90;;;19.00;99.90;;;;;;4962797;28;20124;-82
2023/08/10 07:57:23;;;;;;;1.10;1.00;;;19.10;99.90;;;;;;4925521;28;20057;-82
2023/08/10 07:59:48;;;;;;;1.83;0.90;;;19.20;99.90;;;;;;4938497;28;20018;-84
2023/08/10 08:02:15;;;;;;;1.50;1.00;;;19.40;99.90;;;;;;4967983;28;20117;-83
2023/08/10 08:04:40;;;;;;;1.98;1.00;;;19.60;99.90;;;;;;4963305;28;20058;-84
2023/08/10 08:07:06;;;;;;;1.47;0.90;;;19.70;99.90;;;;;;4937171;28;20030;-83
2023/08/10 08:09:32;;;;;;;1.47;0.80;;;19.90;99.90;;;;;;4962753;28;20331;-82
2023/08/10 08:11:58;;;;;;;1.30;0.90;;;20.10;99.90;;;;;;4949655;28;20042;-82
2023/08/10 08:14:23;;;;;;;2.40;0.90;;;20.30;99.90;;;;;;4957421;28;20030;-81
2023/08/10 08:16:49;;;;;;;1.23;0.90;;;20.40;99.90;;;;;;4959886;28;20030;-84
2023/08/10 08:19:15;;;;;;;1.67;0.97;;;20.60;99.90;;;;;;4950735;28;20018;-83
2023/08/10 08:21:41;;;;;;;1.05;0.80;;;20.90;99.90;;;;;;4943048;28;20031;-85
2023/08/10 08:24:07;;;;;;;1.67;0.75;;;21.30;99.90;;;;;;4947862;28;20046;-84
2023/08/10 08:26:33;;;;;;;1.70;1.00;;;21.10;99.90;;;;;;4915854;28;20726;-83
2023/08/10 08:28:59;;;;;;;1.10;1.00;;;22.10;99.90;;;;;;4963896;28;20018;-81
2023/08/10 08:31:26;;;;;;;1.67;0.95;;;22.70;99.90;;;;;;4935226;28;20443;-85
2023/08/10 08:33:52;;;;;;;1.73;1.20;;;23.30;99.90;;;;;;4978888;28;20717;-83
2023/08/10 08:36:18;;;;;;;2.08;0.95;;;23.90;99.90;;;;;;4947609;28;20031;-85
2023/08/10 08:38:44;;;;;;;1.38;1.00;;;24.60;99.90;;;;;;4954821;28;20359;-82
2023/08/10 08:41:10;;;;;;;1.70;1.30;;;25.10;99.90;;;;;;4935503;28;20084;-85
2023/08/10 08:43:37;;;;;;;1.30;1.20;;;25.70;99.90;;;;;;4940534;28;20120;-83
2023/08/10 08:46:05;;;;;;;1.27;1.10;;;26.20;99.90;;;;;;4943800;28;20061;-83
2023/08/10 08:48:32;;;;;;;2.03;1.38;;;26.70;99.90;;;;;;4957690;28;20238;-84
2023/08/10 08:50:58;;;;;;;2.28;1.20;;;27.20;99.90;;;;;;4977152;28;20077;-85
2023/08/10 08:53:24;;;;;;;1.30;1.20;;;27.70;99.90;;;;;;4968866;28;20536;-86
2023/08/10 08:55:50;;;;;;;1.90;1.20;;;28.10;99.90;;;;;;4954009;28;20022;-85
2023/08/10 08:58:17;;;;;;;1.58;1.25;;;28.50;99.90;;;;;;4922349;28;20711;-85
2023/08/10 09:00:54;;;;;;;1.52;1.10;;;28.80;99.90;;;;;;4934677;28;20657;-83
2023/08/10 09:03:26;;;;;;;1.40;1.20;;;29.10;98.20;;;;;;4946975;28;20029;-85
2023/08/10 09:05:52;;;;;;;1.75;1.17;;;29.40;99.20;;;;;;4965035;28;20133;-84
2023/08/10 09:08:19;;;;;;;1.08;1.02;;;29.60;99.90;;;;;;4941285;28;20089;-84
2023/08/10 09:10:46;;;;;;;1.30;1.20;;;29.90;99.90;;;;;;4941160;28;20581;-83
2023/08/10 09:13:16;;;;;;;1.73;1.33;;;30.10;99.90;;;;;;4921399;28;20480;-84
2023/08/10 09:15:42;;;;;;;1.90;1.20;;;30.40;99.30;;;;;;4943314;28;20095;-84
2023/08/10 09:18:08;;;;;;;1.30;1.20;;;30.60;99.90;;;;;;4957496;28;20034;-84
2023/08/10 09:20:34;;;;;;;1.50;1.40;;;30.80;99.90;;;;;;4960633;28;20256;-82
2023/08/10 09:23:00;;;;;;;1.50;1.40;;;31.00;99.90;;;;;;4959331;28;20200;-85
2023/08/10 09:25:33;;;;;;;1.67;1.50;;;31.20;99.80;;;;;;4962370;28;20026;-86
2023/08/10 09:27:59;;;;;;;1.40;1.27;;;31.40;99.60;;;;;;4953216;28;20038;-80
2023/08/10 09:30:25;;;;;;;1.60;1.35;;;31.60;99.50;;;;;;4934970;28;20060;-84
2023/08/10 09:32:51;;;;;;;2.10;1.60;;;31.80;99.40;;;;;;4948398;28;20045;-85
2023/08/10 09:35:18;;;;;;;1.67;1.58;;;31.90;99.30;;;;;;4956404;28;20216;-84
2023/08/10 09:37:48;;;;;;;1.27;1.17;;;32.10;98.40;;;;;;4947301;28;20026;-86
2023/08/10 09:40:17;;;;;;;2.17;1.55;;;32.20;96.30;;;;;;4956100;28;20034;-83
2023/08/10 09:42:43;;;;;;;1.47;1.30;;;32.20;96.00;;;;;;4939398;28;20504;-82
2023/08/10 09:45:15;;;;;;;1.40;1.30;;;32.30;98.10;;;;;;4941876;28;20026;-83
2023/08/10 09:47:42;;;;;;;1.48;1.30;;;32.40;97.90;;;;;;4969565;28;20057;-83
2023/08/10 09:50:12;;;;;;;1.60;1.50;;;32.50;98.20;;;;;;4953166;28;20507;-84
2023/08/10 09:52:38;;;;;;;1.58;1.48;;;32.60;98.20;;;;;;4945965;28;20033;-82
2023/08/10 09:55:06;;;;;;;1.70;1.60;;;32.80;98.50;;;;;;4962180;28;20176;-82
2023/08/10 09:57:32;;;;;;;1.60;1.50;;;32.90;97.90;;;;;;4955127;28;20704;-81
2023/08/10 09:59:58;;;;;;;1.60;1.50;;;33.10;98.60;;;;;;4941241;28;20139;-85
2023/08/10 10:02:25;;;;;;;1.48;1.38;;;33.30;98.50;;;;;;4982584;28;20030;-84
2023/08/10 10:04:51;;;;;;;1.40;1.30;;;33.40;98.50;;;;;;4943069;28;20137;-84
2023/08/10 10:07:28;;;;;;;1.55;1.45;;;33.60;98.50;;;;;;4964603;28;20030;-83
2023/08/10 10:09:58;;;;;;;1.60;1.50;;;33.70;96.40;;;;;;4950669;28;20046;-85
2023/08/10 10:12:24;;;;;;;1.52;1.42;;;33.80;97.30;;;;;;4941008;28;20034;-81
2023/08/10 10:14:51;;;;;;;1.50;1.40;;;34.00;98.40;;;;;;4926769;28;20038;-84
2023/08/10 10:17:18;;;;;;;1.60;1.40;;;34.10;98.00;;;;;;4975640;28;20034;-84
2023/08/10 10:19:46;;;;;;;1.52;1.40;;;34.10;97.90;;;;;;4913754;28;20276;-84
2023/08/10 10:22:15;;;;;;;1.60;1.50;;;34.30;98.00;;;;;;4968127;28;20089;-85
2023/08/10 10:24:41;;;;;;;1.70;1.50;;;34.40;98.00;;;;;;4937536;28;20038;-83
2023/08/10 10:27:09;;;;;;;1.60;1.50;;;34.50;98.20;;;;;;4940989;28;20666;-84
2023/08/10 10:29:49;;;;;;;1.70;1.60;;;34.60;97.80;;;;;;4939743;28;20785;-84
2023/08/10 10:32:20;;;;;;;1.92;1.70;;;34.80;95.80;;;;;;4965320;28;20070;-84
2023/08/10 10:34:47;;;;;;;1.70;1.60;;;34.90;95.90;;;;;;4940593;28;20250;-83
2023/08/10 10:37:15;;;;;;;1.80;1.60;;;34.90;97.60;;;;;;4944626;28;20022;-84
2023/08/10 10:39:45;;;;;;;1.73;1.63;;;35.00;97.30;;;;;;4953993;28;20527;-85
2023/08/10 10:42:12;;;;;;;1.60;1.50;;;35.10;95.10;;;;;;4945086;28;20081;-83
2023/08/10 10:45:00;;;;;;;1.95;1.50;;;35.20;97.10;;;;;;4959845;28;20133;-81
2023/08/10 10:47:40;;;;;;;1.52;1.40;;;35.30;92.90;;;;;;4933340;28;20031;-85
2023/08/10 10:50:15;;;;;;;2.03;1.60;;;35.40;93.60;;;;;;4944333;28;20374;-83
2023/08/10 10:52:40;;;;;;;1.60;1.50;;;35.40;93.80;;;;;;4977309;28;20146;-84
2023/08/10 10:55:09;;;;;;;1.67;1.57;;;35.50;97.10;;;;;;4962612;28;20045;-81
2023/08/10 10:57:40;;;;;;;1.80;1.70;;;35.60;95.50;;;;;;4943294;28;20268;-83
2023/08/10 11:00:07;;;;;;;1.67;1.58;;;35.60;96.30;;;;;;4949784;28;20121;-82
2023/08/10 11:02:33;;;;;;;1.65;1.55;;;35.80;96.80;;;;;;4946108;28;20029;-83
2023/08/10 11:05:00;;;;;;;1.95;1.80;;;35.80;96.90;;;;;;4954158;28;21204;-83
2023/08/10 11:07:26;;;;;;;1.90;1.70;;;35.80;96.60;;;;;;4962622;28;20034;-83
2023/08/10 11:09:52;;;;;;;1.67;1.58;;;35.90;96.70;;;;;;4963248;28;20025;-85
2023/08/10 11:12:18;;;;;;;1.90;1.80;;;36.00;96.20;;;;;;4962105;28;20018;-81
2023/08/10 11:14:43;;;;;;;2.78;1.70;;;36.10;96.20;;;;;;4953324;28;20117;-83
2023/08/10 11:17:09;;;;;;;1.70;1.60;;;36.10;96.50;;;;;;4957700;28;20489;-83
2023/08/10 11:19:35;;;;;;;1.70;1.60;;;36.20;96.30;;;;;;4971311;28;20108;-84
2023/08/10 11:22:02;;;;;;;1.83;1.70;;;36.20;96.10;;;;;;4956105;28;20030;-82
2023/08/10 11:24:32;;;;;;;1.70;1.60;;;36.30;96.10;;;;;;4964412;28;20030;-83
2023/08/10 11:26:58;;;;;;;1.90;1.80;;;36.40;95.70;;;;;;4941637;28;20229;-83
2023/08/10 11:29:26;;;;;;;1.90;1.70;;;36.40;95.50;;;;;;4971720;28;20033;-83
2023/08/10 11:31:54;;;;;;;1.70;1.50;;;36.50;95.60;;;;;;4946117;28;20113;-84
2023/08/10 11:34:22;;;;;;;2.08;1.80;;;36.50;94.30;;;;;;4981152;28;20022;-82
2023/08/10 11:36:48;;;;;;;2.00;1.80;;;36.60;95.10;;;;;;4968439;28;20459;-84
2023/08/10 11:39:14;;;;;;;1.98;1.88;;;36.70;95.60;;;;;;4960872;28;20500;-84
2023/08/10 11:41:45;;;;;;;1.80;1.70;;;36.80;95.30;;;;;;4943167;28;20352;-84
2023/08/10 11:44:28;;;;;;;1.70;1.60;;;36.80;92.90;;;;;;4967398;28;20034;-84
2023/08/10 11:46:56;;;;;;;2.00;1.77;;;36.90;91.00;;;;;;4950635;28;20170;-83
2023/08/10 11:49:24;;;;;;;2.75;1.92;;;36.90;94.50;;;;;;4947544;28;20104;-85
2023/08/10 11:51:50;;;;;;;1.95;1.70;;;37.00;94.70;;;;;;4954628;28;20030;-83
2023/08/10 11:54:17;;;;;;;1.80;1.55;;;37.10;95.10;;;;;;4948362;28;20469;-85
2023/08/10 11:56:44;;;;;;;1.77;1.67;;;37.10;94.90;;;;;;4971582;28;20291;-83
2023/08/10 11:59:18;;;;;;;1.85;1.75;;;37.20;94.80;;;;;;4954881;28;20026;-85
2023/08/10 12:01:52;;;;;;;1.88;1.70;;;37.40;91.90;;;;;;4974407;28;20347;-84
2023/08/10 12:04:18;;;;;;;1.67;1.58;;;37.40;91.00;;;;;;4956539;28;20510;-83
2023/08/10 12:06:43;;;;;;;1.90;1.70;;;37.40;94.60;;;;;;4973596;28;20122;-84
2023/08/10 12:09:13;;;;;;;1.73;1.63;;;37.40;93.70;;;;;;4964337;28;20269;-84
2023/08/10 12:11:39;;;;;;;1.77;1.67;;;37.40;91.50;;;;;;4961594;28;20575;-83
2023/08/10 12:14:08;;;;;;;1.80;1.70;;;37.50;93.90;;;;;;4954353;28;20493;-83
2023/08/10 12:16:34;;;;;;;2.10;1.80;;;37.50;91.80;;;;;;4949883;28;20115;-81
2023/08/10 12:19:00;;;;;;;2.10;1.90;;;37.50;93.10;;;;;;4963082;28;20377;-85
2023/08/10 12:21:26;;;;;;;2.53;1.70;;;37.50;92.90;;;;;;4949335;28;20037;-85
2023/08/10 12:23:52;;;;;;;2.07;1.97;;;37.50;92.60;;;;;;4986650;28;20400;-85
2023/08/10 12:26:18;;;;;;;1.90;1.80;;;37.40;92.20;;;;;;4952098;28;20088;-85
2023/08/10 12:28:44;;;;;;;1.90;1.77;;;37.40;92.20;;;;;;4937928;28;20332;-84
2023/08/10 12:31:10;;;;;;;3.07;1.60;;;37.40;91.90;;;;;;4966088;28;20046;-85
2023/08/10 12:33:39;;;;;;;1.90;1.70;;;37.40;91.80;;;;;;4934116;28;20249;-84
2023/08/10 12:36:05;;;;;;;2.03;1.83;;;37.30;91.00;;;;;;4934068;28;20045;-85
2023/08/10 12:38:31;;;;;;;1.90;1.80;;;37.30;90.60;;;;;;4971143;28;20519;-84
2023/08/10 12:40:57;;;;;;;1.80;1.70;;;37.20;90.20;;;;;;4965897;28;20022;-84
2023/08/10 12:43:23;;;;;;;1.92;1.80;;;37.20;90.00;;;;;;4960346;28;20188;-83
2023/08/10 12:45:50;;;;;;;2.00;1.80;;;37.10;89.50;;;;;;4959861;28;20035;-85
2023/08/10 12:48:15;;;;;;;1.77;1.67;;;37.00;89.70;;;;;;4968214;28;20424;-85